Time;durP1;ratioP1;P1;durP2;ratioP2;P2;SDS_P1;SDS_P2;PMS_P1;PMS_P2;Temp;Humidity;BMP_temperature;BMP_pressure;BME280_temperature;BME280_humidity;BME280_pressure;Samples;Min_cycle;Max_cycle;Signal;HPM_P1;HPM_P2
2023/11/10 00:00:42;;;;;;;;;;;7.90;90.00;;;;;;5112512;28;20362;-72
2023/11/10 00:03:07;;;;;;;;;;;7.90;90.10;;;;;;5094346;28;20315;-72
2023/11/10 00:05:33;;;;;;;;;;;8.00;90.10;;;;;;5112669;28;19914;-71
2023/11/10 00:07:59;;;;;;;;;;;8.00;90.10;;;;;;5093887;28;20368;-71
2023/11/10 00:10:27;;;;;;;;;;;8.10;90.10;;;;;;5112262;28;19927;-71
2023/11/10 00:12:53;;;;;;;;;;;8.10;90.10;;;;;;5112302;28;20340;-72
2023/11/10 00:15:19;;;;;;;;;;;8.20;90.10;;;;;;5112319;28;19919;-71
2023/11/10 00:17:45;;;;;;;;;;;8.20;90.10;;;;;;5093862;28;19922;-71
2023/11/10 00:20:11;;;;;;;;;;;8.30;90.00;;;;;;5112112;28;19912;-72
2023/11/10 00:22:38;;;;;;;;;;;8.30;90.00;;;;;;5112054;28;19923;-71
2023/11/10 00:25:04;;;;;;;;;;;8.30;90.10;;;;;;5112090;28;19957;-70
2023/11/10 00:27:30;;;;;;;;;;;8.30;90.10;;;;;;5112238;28;19919;-72
2023/11/10 00:29:56;;;;;;;;;;;8.40;90.20;;;;;;5111854;28;19916;-71
2023/11/10 00:32:21;;;;;;;;;;;8.50;90.20;;;;;;5111889;28;20285;-72
2023/11/10 00:34:47;;;;;;;;;;;8.50;90.20;;;;;;5112035;28;19951;-72
2023/11/10 00:37:13;;;;;;;;;;;8.60;90.10;;;;;;5111757;28;19915;-72
2023/11/10 00:39:38;;;;;;;;;;;8.60;90.10;;;;;;5093458;28;20102;-72
2023/11/10 00:42:04;;;;;;;;;;;8.70;90.10;;;;;;5111954;28;19912;-72
2023/11/10 00:44:29;;;;;;;;;;;8.80;90.10;;;;;;5111812;28;20280;-72
2023/11/10 00:46:55;;;;;;;;;;;8.80;90.10;;;;;;5111657;28;19916;-72
2023/11/10 00:49:21;;;;;;;;;;;8.90;90.10;;;;;;5111554;28;19919;-72
2023/11/10 00:51:48;;;;;;;;;;;8.90;90.10;;;;;;5111463;28;19926;-72
2023/11/10 00:54:15;;;;;;;;;;;9.00;90.00;;;;;;5093087;28;19918;-72
2023/11/10 00:56:41;;;;;;;;;;;8.90;90.00;;;;;;5111524;28;20006;-72
2023/11/10 00:59:07;;;;;;;;;;;9.00;90.00;;;;;;5111341;28;20007;-72
2023/11/10 01:01:36;;;;;;;;;;;9.00;90.00;;;;;;5093187;28;19923;-72
2023/11/10 01:04:03;;;;;;;;;;;9.00;90.00;;;;;;5111721;28;19907;-71
2023/11/10 01:06:28;;;;;;;;;;;9.00;90.00;;;;;;5111018;28;19926;-71
2023/11/10 01:08:54;;;;;;;;;;;9.00;90.00;;;;;;5110968;28;19926;-71
2023/11/10 01:11:20;;;;;;;;;;;9.10;90.10;;;;;;5111211;28;19964;-71
2023/11/10 01:13:45;;;;;;;;;;;9.00;90.00;;;;;;5111105;28;19915;-71
2023/11/10 01:16:12;;;;;;;;;;;9.00;90.00;;;;;;5111090;28;20374;-71
2023/11/10 01:18:38;;;;;;;;;;;9.00;90.00;;;;;;5110990;28;20467;-71
2023/11/10 01:21:04;;;;;;;;;;;9.00;90.00;;;;;;5092789;28;19908;-71
2023/11/10 01:23:29;;;;;;;;;;;9.00;90.00;;;;;;5110953;28;20065;-71
2023/11/10 01:25:55;;;;;;;;;;;8.90;90.00;;;;;;5110921;28;19919;-71
2023/11/10 01:28:20;;;;;;;;;;;8.90;90.00;;;;;;5110739;28;19916;-71
2023/11/10 01:30:46;;;;;;;;;;;8.90;90.00;;;;;;5110784;28;20022;-71
2023/11/10 01:33:12;;;;;;;;;;;8.90;90.00;;;;;;5110856;28;19915;-71
2023/11/10 01:35:37;;;;;;;;;;;8.90;90.00;;;;;;5110709;28;19943;-71
2023/11/10 01:38:03;;;;;;;;;;;8.90;90.10;;;;;;5110622;28;20265;-71
2023/11/10 01:40:36;;;;;;;;;;;8.90;90.10;;;;;;5110621;28;19918;-71
2023/11/10 01:43:05;;;;;;;;;;;8.90;90.10;;;;;;5110695;28;20100;-72
2023/11/10 01:45:31;;;;;;;;;;;8.90;90.10;;;;;;5110616;28;19980;-71
2023/11/10 01:47:57;;;;;;;;;;;8.90;90.10;;;;;;5110474;28;20368;-72
2023/11/10 01:50:24;;;;;;;;;;;8.90;90.10;;;;;;5110422;28;20010;-71
2023/11/10 01:52:49;;;;;;;;;;;8.90;90.10;;;;;;5110394;28;19916;-71
2023/11/10 01:55:16;;;;;;;;;;;8.90;90.20;;;;;;5092179;28;20445;-71
2023/11/10 01:57:43;;;;;;;;;;;8.90;90.20;;;;;;5110346;28;19938;-71
2023/11/10 02:00:10;;;;;;;;;;;8.90;90.20;;;;;;5110375;28;19915;-71
2023/11/10 02:02:36;;;;;;;;;;;8.90;90.20;;;;;;5110134;28;19919;-71
2023/11/10 02:05:02;;;;;;;;;;;8.90;90.20;;;;;;5110123;28;19912;-71
2023/11/10 02:07:27;;;;;;;;;;;8.90;90.20;;;;;;5110095;28;20440;-71
2023/11/10 02:09:53;;;;;;;;;;;8.90;90.30;;;;;;5110278;28;19950;-71
2023/11/10 02:12:19;;;;;;;;;;;8.90;90.20;;;;;;5110040;28;19920;-71
2023/11/10 02:14:44;;;;;;;;;;;9.00;90.20;;;;;;5110014;28;20011;-71
2023/11/10 02:17:10;;;;;;;;;;;9.00;90.20;;;;;;5109197;28;19961;-71
2023/11/10 02:19:36;;;;;;;;;;;9.00;90.20;;;;;;5091576;28;19916;-71
2023/11/10 02:22:01;;;;;;;;;;;9.00;90.20;;;;;;5091602;28;19915;-71
2023/11/10 02:24:27;;;;;;;;;;;8.90;90.20;;;;;;5109794;28;19912;-71
2023/11/10 02:26:53;;;;;;;;;;;8.90;90.20;;;;;;5109769;28;20048;-71
2023/11/10 02:29:18;;;;;;;;;;;8.90;90.30;;;;;;5109714;28;20006;-71
2023/11/10 02:31:44;;;;;;;;;;;8.80;90.30;;;;;;5109623;28;20401;-71
2023/11/10 02:34:10;;;;;;;;;;;8.80;90.30;;;;;;5109642;28;20178;-72
2023/11/10 02:36:37;;;;;;;;;;;8.80;90.30;;;;;;5109495;28;19954;-71
2023/11/10 02:39:04;;;;;;;;;;;8.80;90.30;;;;;;5109459;28;19951;-71
2023/11/10 02:41:30;;;;;;;;;;;8.80;90.40;;;;;;5091313;28;20382;-71
2023/11/10 02:43:55;;;;;;;;;;;8.90;90.40;;;;;;5091131;28;19916;-71
2023/11/10 02:46:21;;;;;;;;;;;8.90;90.40;;;;;;5109234;28;19911;-71
2023/11/10 02:48:47;;;;;;;;;;;9.00;90.40;;;;;;5090896;28;20317;-71
2023/11/10 02:51:13;;;;;;;;;;;9.00;90.40;;;;;;5109724;28;19980;-71
2023/11/10 02:53:38;;;;;;;;;;;9.00;90.30;;;;;;5091008;28;19908;-71
2023/11/10 02:56:06;;;;;;;;;;;9.10;90.30;;;;;;5109378;28;19916;-71
2023/11/10 02:58:32;;;;;;;;;;;9.10;90.30;;;;;;5109208;28;19912;-71
2023/11/10 03:00:58;;;;;;;;;;;9.10;90.30;;;;;;5109140;28;19943;-71
2023/11/10 03:03:23;;;;;;;;;;;9.10;90.30;;;;;;5108958;28;19947;-71
2023/11/10 03:05:49;;;;;;;;;;;9.20;90.30;;;;;;5109137;28;19908;-71
2023/11/10 03:08:16;;;;;;;;;;;9.20;90.30;;;;;;5090381;28;20430;-71
2023/11/10 03:10:42;;;;;;;;;;;9.20;90.30;;;;;;5108901;28;19916;-71
2023/11/10 03:13:09;;;;;;;;;;;9.20;90.30;;;;;;5109144;28;20008;-71
2023/11/10 03:15:36;;;;;;;;;;;9.30;90.30;;;;;;5108805;28;20334;-72
2023/11/10 03:18:01;;;;;;;;;;;9.30;90.30;;;;;;5090572;28;19957;-71
2023/11/10 03:20:27;;;;;;;;;;;9.30;90.30;;;;;;5108770;28;19963;-71
2023/11/10 03:22:52;;;;;;;;;;;9.20;90.30;;;;;;5108717;28;20007;-71
2023/11/10 03:25:18;;;;;;;;;;;9.20;90.30;;;;;;5108778;28;19911;-72
2023/11/10 03:27:44;;;;;;;;;;;9.20;90.30;;;;;;5090403;28;20359;-71
2023/11/10 03:30:09;;;;;;;;;;;9.20;90.30;;;;;;5108703;28;19912;-72
2023/11/10 03:32:35;;;;;;;;;;;9.20;90.30;;;;;;5090184;28;19920;-71
2023/11/10 03:35:01;;;;;;;;;;;9.20;90.30;;;;;;5108622;28;20367;-71
2023/11/10 03:37:26;;;;;;;;;;;9.10;90.30;;;;;;5108725;28;19912;-71
2023/11/10 03:39:52;;;;;;;;;;;9.10;90.30;;;;;;5108486;28;20372;-71
2023/11/10 03:42:18;;;;;;;;;;;9.00;90.30;;;;;;5108558;28;20002;-71
2023/11/10 03:44:43;;;;;;;;;;;8.90;90.40;;;;;;5108573;28;19919;-71
2023/11/10 03:47:09;;;;;;;;;;;8.90;90.40;;;;;;5108478;28;19908;-71
2023/11/10 03:49:35;;;;;;;;;;;8.90;90.50;;;;;;5090093;28;20264;-71
2023/11/10 03:52:01;;;;;;;;;;;8.80;90.50;;;;;;5108360;28;19926;-71
2023/11/10 03:54:26;;;;;;;;;;;8.80;90.50;;;;;;5108434;28;19908;-72
2023/11/10 03:56:52;;;;;;;;;;;8.80;90.50;;;;;;5108380;28;19923;-71
2023/11/10 03:59:17;;;;;;;;;;;8.70;90.50;;;;;;5108370;28;19912;-71
2023/11/10 04:01:43;;;;;;;;;;;8.80;90.50;;;;;;5108723;28;19916;-71
2023/11/10 04:04:08;;;;;;;;;;;8.70;90.50;;;;;;5090167;28;19915;-72
2023/11/10 04:06:34;;;;;;;;;;;8.70;90.40;;;;;;5108370;28;19964;-71
2023/11/10 04:09:00;;;;;;;;;;;8.70;90.40;;;;;;5108158;28;19934;-72
2023/11/10 04:11:26;;;;;;;;;;;8.60;90.40;;;;;;5108132;28;20006;-71
2023/11/10 04:13:51;;;;;;;;;;;8.60;90.50;;;;;;5108380;28;19919;-71
2023/11/10 04:16:21;;;;;;;;;;;8.60;90.50;;;;;;5090262;28;20458;-71
2023/11/10 04:18:48;;;;;;;;;;;8.50;90.40;;;;;;5108039;28;19915;-71
2023/11/10 04:21:14;;;;;;;;;;;8.60;90.50;;;;;;5108443;28;19915;-71
2023/11/10 04:23:43;;;;;;;;;;;8.50;90.50;;;;;;5108185;28;19908;-71
2023/11/10 04:26:13;;;;;;;;;;;8.50;90.50;;;;;;5108166;28;20364;-71
2023/11/10 04:28:39;;;;;;;;;;;8.60;90.50;;;;;;5108014;28;19918;-71
2023/11/10 04:31:05;;;;;;;;;;;8.60;90.40;;;;;;5089810;28;20004;-71
2023/11/10 04:33:30;;;;;;;;;;;8.60;90.40;;;;;;5108257;28;19951;-71
2023/11/10 04:35:56;;;;;;;;;;;8.50;90.40;;;;;;5108121;28;19912;-72
2023/11/10 04:38:22;;;;;;;;;;;8.50;90.40;;;;;;5108118;28;19978;-71
2023/11/10 04:40:49;;;;;;;;;;;8.40;90.40;;;;;;5090698;28;19953;-72
2023/11/10 04:43:15;;;;;;;;;;;8.30;90.30;;;;;;5111916;28;19969;-71
2023/11/10 04:45:41;;;;;;;;;;;8.30;90.40;;;;;;5111853;28;19991;-71
2023/11/10 04:48:07;;;;;;;;;;;8.20;90.40;;;;;;5093431;28;19912;-71
2023/11/10 04:50:33;;;;;;;;;;;8.20;90.40;;;;;;5111636;28;19941;-71
2023/11/10 04:52:58;;;;;;;;;;;8.10;90.40;;;;;;5111495;28;19915;-72
2023/11/10 04:55:24;;;;;;;;;;;8.10;90.40;;;;;;5111458;28;20336;-71
2023/11/10 04:57:49;;;;;;;;;;;8.10;90.40;;;;;;5093216;28;19994;-71
2023/11/10 05:00:16;;;;;;;;;;;8.10;90.40;;;;;;5111323;28;20018;-72
2023/11/10 05:02:45;;;;;;;;;;;8.10;90.50;;;;;;5111390;28;19912;-73
2023/11/10 05:05:13;;;;;;;;;;;8.10;90.70;;;;;;5111951;28;20329;-73
2023/11/10 05:07:39;;;;;;;;;;;8.10;90.40;;;;;;5111035;28;20244;-73
2023/11/10 05:10:05;;;;;;;;;;;8.10;90.40;;;;;;5111259;28;20371;-73
2023/11/10 05:12:31;;;;;;;;;;;8.10;90.40;;;;;;5111257;28;19912;-73
2023/11/10 05:14:57;;;;;;;;;;;8.00;90.40;;;;;;5111231;28;20274;-73
2023/11/10 05:17:23;;;;;;;;;;;8.00;90.30;;;;;;5111242;28;19916;-70
2023/11/10 05:19:49;;;;;;;;;;;7.90;90.30;;;;;;5111291;28;20314;-73
2023/11/10 05:22:15;;;;;;;;;;;7.80;90.30;;;;;;5111112;28;19916;-71
2023/11/10 05:24:43;;;;;;;;;;;7.80;90.30;;;;;;5111384;28;19937;-71
2023/11/10 05:27:09;;;;;;;;;;;7.70;90.30;;;;;;5093217;28;19983;-71
2023/11/10 05:29:35;;;;;;;;;;;7.60;90.30;;;;;;5110813;28;20403;-71
2023/11/10 05:32:01;;;;;;;;;;;7.60;90.40;;;;;;5110795;28;20011;-71
2023/11/10 05:34:27;;;;;;;;;;;7.60;90.50;;;;;;5092552;28;19985;-71
2023/11/10 05:36:53;;;;;;;;;;;7.70;90.50;;;;;;5092502;28;20393;-71
2023/11/10 05:39:18;;;;;;;;;;;7.70;90.40;;;;;;5110706;28;19960;-71
2023/11/10 05:41:44;;;;;;;;;;;7.70;90.40;;;;;;5110656;28;20006;-71
2023/11/10 05:44:10;;;;;;;;;;;7.70;90.40;;;;;;5110651;28;19915;-71
2023/11/10 05:46:36;;;;;;;;;;;7.70;90.40;;;;;;5110480;28;19916;-71
2023/11/10 05:49:02;;;;;;;;;;;7.70;90.30;;;;;;5110457;28;19944;-71
2023/11/10 05:51:28;;;;;;;;;;;7.60;90.30;;;;;;5110308;28;19989;-71
2023/11/10 05:53:53;;;;;;;;;;;7.60;90.30;;;;;;5109469;28;19918;-71
2023/11/10 05:56:21;;;;;;;;;;;7.50;90.30;;;;;;5110378;28;19947;-71
2023/11/10 05:58:47;;;;;;;;;;;7.50;90.30;;;;;;5110053;28;19912;-71
2023/11/10 06:01:12;;;;;;;;;;;7.50;90.40;;;;;;5110198;28;19916;-71
2023/11/10 06:03:39;;;;;;;;;;;7.60;90.40;;;;;;5091827;28;19918;-71
2023/11/10 06:06:05;;;;;;;;;;;7.70;90.40;;;;;;5110168;28;19969;-72
2023/11/10 06:08:33;;;;;;;;;;;7.70;90.40;;;;;;5091539;28;19928;-71
2023/11/10 06:10:59;;;;;;;;;;;7.80;90.40;;;;;;5110040;28;19912;-71
2023/11/10 06:13:25;;;;;;;;;;;7.80;90.30;;;;;;5109940;28;19977;-71
2023/11/10 06:15:51;;;;;;;;;;;7.80;90.30;;;;;;5110014;28;19918;-71
2023/11/10 06:18:17;;;;;;;;;;;7.70;90.30;;;;;;5110117;28;20317;-71
2023/11/10 06:20:42;;;;;;;;;;;7.60;90.30;;;;;;5091727;28;20015;-72
2023/11/10 06:23:08;;;;;;;;;;;7.60;90.30;;;;;;5109880;28;20272;-71
2023/11/10 06:25:33;;;;;;;;;;;7.60;90.30;;;;;;5109667;28;20017;-71
2023/11/10 06:27:59;;;;;;;;;;;7.50;90.30;;;;;;5109453;28;20002;-71
2023/11/10 06:30:25;;;;;;;;;;;7.50;90.30;;;;;;5109248;28;19920;-71
2023/11/10 06:32:50;;;;;;;;;;;7.50;90.30;;;;;;5109360;28;19964;-71
2023/11/10 06:35:16;;;;;;;;;;;7.50;90.30;;;;;;5109208;28;20264;-72
2023/11/10 06:37:42;;;;;;;;;;;7.50;90.40;;;;;;5109170;28;19912;-71
2023/11/10 06:40:08;;;;;;;;;;;7.60;90.40;;;;;;5090619;28;19918;-71
2023/11/10 06:42:34;;;;;;;;;;;7.60;90.60;;;;;;5109404;28;19912;-71
2023/11/10 06:45:01;;;;;;;;;;;7.60;90.30;;;;;;5108961;28;19998;-71
2023/11/10 06:47:26;;;;;;;;;;;7.60;90.30;;;;;;5108708;28;19908;-71
2023/11/10 06:49:52;;;;;;;;;;;7.50;90.20;;;;;;5090245;28;19912;-71
2023/11/10 06:52:18;;;;;;;;;;;7.40;90.20;;;;;;5073364;28;19916;-71
2023/11/10 06:54:43;;;;;;;;;;;7.40;90.20;;;;;;5108886;28;19915;-71
2023/11/10 06:57:10;;;;;;;;;;;7.30;90.20;;;;;;5108554;28;20351;-71
2023/11/10 06:59:36;;;;;;;;;;;7.20;90.20;;;;;;5108797;28;19916;-71
2023/11/10 07:02:02;;;;;;;;;;;7.10;90.20;;;;;;5108952;28;20006;-72
2023/11/10 07:04:29;;;;;;;;;;;7.00;90.20;;;;;;5090304;28;19912;-71
2023/11/10 07:06:55;;;;;;;;;;;7.00;90.20;;;;;;5108401;28;19916;-71
2023/11/10 07:09:21;;;;;;;;;;;6.90;90.20;;;;;;5108699;28;19923;-71
2023/11/10 07:11:48;;;;;;;;;;;6.90;90.20;;;;;;5090297;28;20410;-71
2023/11/10 07:14:14;;;;;;;;;;;6.80;90.20;;;;;;5108265;28;19930;-72
2023/11/10 07:16:39;;;;;;;;;;;6.80;90.20;;;;;;5108524;28;20344;-71
2023/11/10 07:19:05;;;;;;;;;;;6.80;90.20;;;;;;5108466;28;20003;-72
2023/11/10 07:21:31;;;;;;;;;;;6.80;90.10;;;;;;5108228;28;19907;-72
2023/11/10 07:23:56;;;;;;;;;;;6.80;90.10;;;;;;5089942;28;20076;-72
2023/11/10 07:26:22;;;;;;;;;;;6.80;90.10;;;;;;5108394;28;19912;-72
2023/11/10 07:28:48;;;;;;;;;;;6.80;90.10;;;;;;5091062;28;19912;-74
2023/11/10 07:31:13;;;;;;;;;;;6.80;90.10;;;;;;5090197;28;19916;-73
2023/11/10 07:33:39;;;;;;;;;;;6.80;90.10;;;;;;5108518;28;19918;-72
2023/11/10 07:36:05;;;;;;;;;;;6.70;90.00;;;;;;5108184;28;19998;-74
2023/11/10 07:38:31;;;;;;;;;;;6.70;90.00;;;;;;5108060;28;19915;-76
2023/11/10 07:40:56;;;;;;;;;;;6.70;90.00;;;;;;5108132;28;19922;-76
2023/11/10 07:43:22;;;;;;;;;;;6.60;90.00;;;;;;5107932;28;19965;-74
2023/11/10 07:45:48;;;;;;;;;;;6.60;90.00;;;;;;5090045;28;19912;-74
2023/11/10 07:48:13;;;;;;;;;;;6.50;90.00;;;;;;5108243;28;20363;-74
2023/11/10 07:50:39;;;;;;;;;;;6.60;90.00;;;;;;5090109;28;19937;-74
2023/11/10 07:53:05;;;;;;;;;;;6.50;90.00;;;;;;5108180;28;19958;-75
2023/11/10 07:55:31;;;;;;;;;;;6.50;90.00;;;;;;5108877;28;19912;-74
2023/11/10 07:57:57;;;;;;;;;;;6.50;90.00;;;;;;5107677;28;19964;-74
2023/11/10 08:00:22;;;;;;;;;;;6.50;90.00;;;;;;5108052;28;20348;-74
2023/11/10 08:02:54;;;;;;;;;;;6.50;90.00;;;;;;5108115;28;19908;-74
2023/11/10 08:05:22;;;;;;;;;;;6.40;90.00;;;;;;5089684;28;19914;-74
2023/11/10 08:07:48;;;;;;;;;;;6.40;90.00;;;;;;5107348;28;19919;-74
2023/11/10 08:10:16;;;;;;;;;;;6.40;90.00;;;;;;5107603;28;19966;-74
2023/11/10 08:12:42;;;;;;;;;;;6.40;90.00;;;;;;5089161;28;19965;-72
2023/11/10 08:15:09;;;;;;;;;;;6.40;90.00;;;;;;5107471;28;19916;-67
2023/11/10 08:17:35;;;;;;;;;;;6.40;90.00;;;;;;5093818;28;19916;-72
2023/11/10 08:20:01;;;;;;;;;;;6.50;90.10;;;;;;5111993;28;19968;-72
2023/11/10 08:22:26;;;;;;;;;;;6.50;90.10;;;;;;5112174;28;19908;-72
2023/11/10 08:24:53;;;;;;;;;;;6.50;90.00;;;;;;5111979;28;19915;-72
2023/11/10 08:27:19;;;;;;;;;;;6.50;90.00;;;;;;5111862;28;19908;-72
2023/11/10 08:29:45;;;;;;;;;;;6.50;90.00;;;;;;5111558;28;20419;-73
2023/11/10 08:32:11;;;;;;;;;;;6.60;90.10;;;;;;5111665;28;19916;-72
2023/11/10 08:34:36;;;;;;;;;;;6.60;90.10;;;;;;5111925;28;19907;-72
2023/11/10 08:37:02;;;;;;;;;;;6.60;90.10;;;;;;5093524;28;19941;-72
2023/11/10 08:39:28;;;;;;;;;;;6.70;90.10;;;;;;5093382;28;19915;-72
2023/11/10 08:41:53;;;;;;;;;;;6.70;90.10;;;;;;5076144;28;20036;-73
2023/11/10 08:44:21;;;;;;;;;;;6.70;90.10;;;;;;5111190;28;20314;-73
2023/11/10 08:46:47;;;;;;;;;;;6.80;90.10;;;;;;5111470;28;20367;-73
2023/11/10 08:49:13;;;;;;;;;;;6.80;90.10;;;;;;5111027;28;19958;-73
2023/11/10 08:51:38;;;;;;;;;;;6.90;90.20;;;;;;5111073;28;19972;-73
2023/11/10 08:54:04;;;;;;;;;;;7.00;90.20;;;;;;5092647;28;19915;-73
2023/11/10 08:56:30;;;;;;;;;;;7.10;90.30;;;;;;5110992;28;20286;-72
2023/11/10 08:58:56;;;;;;;;;;;7.20;90.30;;;;;;5110719;28;19911;-72
2023/11/10 09:01:22;;;;;;;;;;;7.30;90.60;;;;;;5092435;28;19918;-72
2023/11/10 09:03:48;;;;;;;;;;;7.90;91.60;;;;;;5110686;28;19908;-72
2023/11/10 09:06:14;;;;;;;;;;;8.90;92.10;;;;;;5110880;28;19915;-73
2023/11/10 09:08:41;;;;;;;;;;;10.00;92.30;;;;;;5110574;28;20268;-73
2023/11/10 09:11:06;;;;;;;;;;;11.10;92.30;;;;;;5110777;28;20423;-75
2023/11/10 09:13:32;;;;;;;;;;;12.10;92.10;;;;;;5093233;28;19911;-75
2023/11/10 09:15:59;;;;;;;;;;;13.00;92.10;;;;;;5111413;28;19908;-75
2023/11/10 09:18:24;;;;;;;;;;;13.80;92.00;;;;;;5112129;28;19922;-76
2023/11/10 09:20:50;;;;;;;;;;;14.40;91.90;;;;;;5094270;28;19912;-75
2023/11/10 09:23:15;;;;;;;;;;;14.80;91.30;;;;;;5112069;28;19999;-75
2023/11/10 09:25:41;;;;;;;;;;;15.10;91.60;;;;;;5111714;28;20044;-76
2023/11/10 09:28:07;;;;;;;;;;;15.70;91.90;;;;;;5111160;28;19999;-75
2023/11/10 09:30:33;;;;;;;;;;;16.20;91.90;;;;;;5092590;28;20234;-75
2023/11/10 09:32:59;;;;;;;;;;;16.70;92.00;;;;;;5110606;28;20396;-75
2023/11/10 09:35:26;;;;;;;;;;;17.10;92.00;;;;;;5110665;28;19916;-75
2023/11/10 09:37:52;;;;;;;;;;;17.50;92.10;;;;;;5092235;28;19921;-75
2023/11/10 09:40:19;;;;;;;;;;;18.00;92.10;;;;;;5092269;28;20241;-75
2023/11/10 09:42:45;;;;;;;;;;;18.30;92.10;;;;;;5110567;28;19916;-75
2023/11/10 09:45:14;;;;;;;;;;;18.50;92.00;;;;;;5091465;28;20307;-74
2023/11/10 09:47:44;;;;;;;;;;;18.80;92.20;;;;;;5073998;28;19938;-75
2023/11/10 09:50:12;;;;;;;;;;;19.10;92.30;;;;;;5073496;28;20506;-75
2023/11/10 09:52:40;;;;;;;;;;;19.40;92.20;;;;;;5090897;28;19955;-74
2023/11/10 09:55:06;;;;;;;;;;;19.70;92.20;;;;;;5103681;28;20306;-76
2023/11/10 09:57:32;;;;;;;;;;;20.00;92.30;;;;;;5111859;28;19923;-75
2023/11/10 09:59:58;;;;;;;;;;;20.20;92.30;;;;;;5111514;28;19908;-75
2023/11/10 10:02:24;;;;;;;;;;;20.40;92.30;;;;;;5093191;28;19911;-76
2023/11/10 10:04:50;;;;;;;;;;;20.60;92.30;;;;;;5093727;28;19972;-76
2023/11/10 10:07:16;;;;;;;;;;;20.80;92.30;;;;;;5111437;28;20347;-75
2023/11/10 10:09:42;;;;;;;;;;;20.90;92.20;;;;;;5111358;28;19924;-75
2023/11/10 10:12:08;;;;;;;;;;;21.00;92.10;;;;;;5111403;28;20485;-80
2023/11/10 10:14:34;;;;;;;;;;;21.00;92.10;;;;;;5112374;28;19962;-81
2023/11/10 10:17:06;;;;;;;;;;;21.00;92.20;;;;;;5113271;28;19934;-67
2023/11/10 10:19:32;;;;;;;;;;;21.10;92.20;;;;;;5095065;28;19908;-79
2023/11/10 10:21:59;;;;;;;;;;;21.30;92.20;;;;;;5111828;28;19920;-78
2023/11/10 10:24:25;;;;;;;;;;;21.30;92.10;;;;;;5111876;28;20014;-80
2023/11/10 10:26:51;;;;;;;;;;;21.20;92.10;;;;;;5110620;28;20344;-73
2023/11/10 10:29:18;;;;;;;;;;;21.30;92.30;;;;;;5091722;28;19965;-74
2023/11/10 10:31:47;;;;;;;;;;;21.40;92.30;;;;;;5106960;28;19912;-74
2023/11/10 10:34:15;;;;;;;;;;;21.40;92.30;;;;;;5101791;28;19912;-76
2023/11/10 10:36:42;;;;;;;;;;;21.50;92.50;;;;;;5078205;28;19930;-76
2023/11/10 10:39:11;;;;;;;;;;;21.70;92.60;;;;;;5090536;28;19912;-74
2023/11/10 10:41:41;;;;;;;;;;;21.80;92.80;;;;;;5110199;28;19920;-73
2023/11/10 10:44:08;;;;;;;;;;;22.10;92.80;;;;;;5109876;28;20264;-72
2023/11/10 10:46:34;;;;;;;;;;;22.20;92.50;;;;;;5109953;28;19919;-73
2023/11/10 10:49:01;;;;;;;;;;;22.20;92.50;;;;;;5110629;28;19908;-73
2023/11/10 10:51:27;;;;;;;;;;;22.20;92.50;;;;;;5091700;28;19911;-74
2023/11/10 10:53:53;;;;;;;;;;;22.20;92.50;;;;;;5109707;28;19912;-74
2023/11/10 10:56:20;;;;;;;;;;;22.30;92.60;;;;;;5091533;28;19947;-73
2023/11/10 10:58:45;;;;;;;;;;;22.40;92.60;;;;;;5109261;28;19961;-73
2023/11/10 11:01:12;;;;;;;;;;;22.50;92.60;;;;;;5075072;28;19908;-75
2023/11/10 11:03:47;;;;;;;;;;;22.50;92.50;;;;;;5097614;28;20352;-71
2023/11/10 11:06:31;;;;;;;;;;;22.40;92.50;;;;;;5108731;28;20010;-74
2023/11/10 11:09:06;;;;;;;;;;;22.40;92.50;;;;;;5107932;28;19986;-73
2023/11/10 11:11:44;;;;;;;;;;;22.40;92.50;;;;;;5089452;28;19919;-72
2023/11/10 11:14:25;;;;;;;;;;;22.40;92.50;;;;;;5084597;28;19995;-71
2023/11/10 11:16:54;;;;;;;;;;;22.40;92.70;;;;;;5089014;28;20348;-73
2023/11/10 11:19:20;;;;;;;;;;;22.40;92.70;;;;;;5107839;28;20237;-73
2023/11/10 11:21:48;;;;;;;;;;;22.30;92.60;;;;;;5107655;28;19923;-73
2023/11/10 11:24:16;;;;;;;;;;;22.20;92.80;;;;;;5107838;28;19998;-78
2023/11/10 11:26:51;;;;;;;;;;;22.20;92.90;;;;;;5108339;28;20078;-73
2023/11/10 11:29:20;;;;;;;;;;;22.20;92.90;;;;;;5108346;28;19915;-73
2023/11/10 11:31:48;;;;;;;;;;;22.30;93.10;;;;;;5108253;28;19916;-73
2023/11/10 11:34:21;;;;;;;;;;;22.40;93.10;;;;;;5087282;28;20317;-72
2023/11/10 11:36:47;;;;;;;;;;;22.30;92.90;;;;;;5106829;28;19925;-72
2023/11/10 11:39:15;;;;;;;;;;;22.40;93.00;;;;;;5107157;28;20007;-73
2023/11/10 11:41:51;;;;;;;;;;;22.40;92.90;;;;;;5107453;28;19912;-73
2023/11/10 11:44:29;;;;;;;;;;;22.30;92.90;;;;;;5088904;28;19961;-73
2023/11/10 11:46:56;;;;;;;;;;;21.90;92.30;;;;;;5107093;28;19994;-74
2023/11/10 11:49:22;;;;;;;;;;;21.20;92.10;;;;;;5089588;28;19965;-72
2023/11/10 11:51:48;;;;;;;;;;;20.50;92.10;;;;;;5106751;28;19959;-73
2023/11/10 11:54:15;;;;;;;;;;;19.80;91.90;;;;;;5107701;28;20252;-68
2023/11/10 11:56:44;;;;;;;;;;;19.00;91.90;;;;;;5106882;28;19919;-68
2023/11/10 11:59:10;;;;;;;;;;;18.50;92.20;;;;;;5107665;28;19908;-73
2023/11/10 12:01:38;;;;;;;;;;;18.20;92.30;;;;;;5107967;28;19918;-74
2023/11/10 12:04:07;;;;;;;;;;;17.90;92.40;;;;;;5070856;28;20349;-73
2023/11/10 12:06:37;;;;;;;;;;;17.90;92.70;;;;;;5103976;28;20002;-73
2023/11/10 12:09:06;;;;;;;;;;;18.00;92.70;;;;;;5019172;28;1866127;-73
2023/11/10 12:11:35;;;;;;;;;;;18.00;92.50;;;;;;5087112;28;19916;-73
2023/11/10 12:14:05;;;;;;;;;;;17.90;92.60;;;;;;5086421;28;19940;-73
2023/11/10 12:16:37;;;;;;;;;;;17.70;92.20;;;;;;5091444;28;19983;-73
2023/11/10 12:19:03;;;;;;;;;;;17.40;92.30;;;;;;5093923;28;19913;-75
2023/11/10 12:21:32;;;;;;;;;;;17.40;92.40;;;;;;5073162;28;19935;-76
2023/11/10 12:24:05;;;;;;;;;;;17.10;91.90;;;;;;5086370;28;20182;-73
2023/11/10 12:26:35;;;;;;;;;;;16.60;91.70;;;;;;5100439;28;19912;-72
2023/11/10 12:29:01;;;;;;;;;;;16.40;92.00;;;;;;5094615;28;20410;-73
2023/11/10 12:31:27;;;;;;;;;;;16.40;92.50;;;;;;5098900;28;19912;-71
2023/11/10 12:33:54;;;;;;;;;;;16.40;92.20;;;;;;5096935;28;20233;-72
2023/11/10 12:36:21;;;;;;;;;;;16.30;91.90;;;;;;5095336;28;20379;-71
2023/11/10 12:38:50;;;;;;;;;;;16.00;92.00;;;;;;5093465;28;19912;-72
2023/11/10 12:41:16;;;;;;;;;;;15.80;91.70;;;;;;5096835;28;20322;-71
2023/11/10 12:43:42;;;;;;;;;;;15.60;91.50;;;;;;5096512;28;19912;-70
2023/11/10 12:46:09;;;;;;;;;;;15.40;91.50;;;;;;5097994;28;19908;-76
2023/11/10 12:48:35;;;;;;;;;;;15.20;91.40;;;;;;5096629;28;19981;-78
2023/11/10 12:51:02;;;;;;;;;;;15.00;91.30;;;;;;5091744;28;19926;-75
2023/11/10 12:53:28;;;;;;;;;;;14.80;91.20;;;;;;5081762;28;19911;-73
2023/11/10 12:55:54;;;;;;;;;;;14.60;91.20;;;;;;5108611;28;19919;-73
2023/11/10 12:58:19;;;;;;;;;;;14.50;91.40;;;;;;5098336;28;19919;-72
2023/11/10 13:00:45;;;;;;;;;;;14.50;91.70;;;;;;5097758;28;20415;-72
2023/11/10 13:03:13;;;;;;;;;;;14.90;92.10;;;;;;5095738;28;19987;-71
2023/11/10 13:05:39;;;;;;;;;;;15.10;92.10;;;;;;5099568;28;19908;-71
2023/11/10 13:08:04;;;;;;;;;;;15.20;91.90;;;;;;5109887;27;19933;-71
2023/11/10 13:10:33;;;;;;;;;;;15.40;92.20;;;;;;5084863;27;19912;-73
2023/11/10 13:12:58;;;;;;;;;;;15.80;92.50;;;;;;5100023;27;19990;-73
2023/11/10 13:15:24;;;;;;;;;;;16.30;92.80;;;;;;5118385;27;20721;-73
2023/11/10 13:17:50;;;;;;;;;;;16.70;92.80;;;;;;5102671;27;19922;-72
2023/11/10 13:20:20;;;;;;;;;;;17.00;92.80;;;;;;5122207;27;20337;-73
2023/11/10 13:22:47;;;;;;;;;;;17.20;92.50;;;;;;5099267;27;19907;-73
2023/11/10 13:25:14;;;;;;;;;;;17.20;92.30;;;;;;5118164;27;19920;-71
2023/11/10 13:27:40;;;;;;;;;;;17.10;92.00;;;;;;5111113;27;19961;-72
2023/11/10 13:30:07;;;;;;;;;;;16.80;91.60;;;;;;5116670;27;20268;-72
2023/11/10 13:32:34;;;;;;;;;;;16.30;91.20;;;;;;5113976;27;20532;-75
2023/11/10 13:35:04;;;;;;;;;;;16.00;91.20;;;;;;5116357;27;19912;-74
2023/11/10 13:37:30;;;;;;;;;;;15.60;91.10;;;;;;5111132;27;19929;-71
2023/11/10 13:39:55;;;;;;;;;;;15.20;91.20;;;;;;5118616;27;20266;-73
2023/11/10 13:42:21;;;;;;;;;;;15.00;91.30;;;;;;5116277;27;19955;-73
2023/11/10 13:44:47;;;;;;;;;;;14.90;91.40;;;;;;5097319;28;19912;-73
2023/11/10 13:47:13;;;;;;;;;;;14.90;91.40;;;;;;5117683;27;20017;-66
2023/11/10 13:49:40;;;;;;;;;;;14.80;91.30;;;;;;5116422;27;19932;-72
2023/11/10 13:52:05;;;;;;;;;;;14.60;91.10;;;;;;5119324;27;20303;-73
2023/11/10 13:54:31;;;;;;;;;;;14.50;91.20;;;;;;5110504;28;19947;-73
2023/11/10 13:56:58;;;;;;;;;;;14.40;91.30;;;;;;5110923;28;19916;-74
2023/11/10 13:59:23;;;;;;;;;;;14.40;91.40;;;;;;5092095;28;19951;-72
2023/11/10 14:01:49;;;;;;;;;;;14.30;91.30;;;;;;5113938;27;20286;-70
2023/11/10 14:04:15;;;;;;;;;;;14.20;91.30;;;;;;5113794;27;19935;-70
2023/11/10 14:06:41;;;;;;;;;;;14.10;91.20;;;;;;5115148;27;19915;-74
2023/11/10 14:09:10;;;;;;;;;;;13.90;90.90;;;;;;5115002;27;19933;-71
2023/11/10 14:11:36;;;;;;;;;;;13.70;90.90;;;;;;5117396;27;20343;-71
2023/11/10 14:14:02;;;;;;;;;;;13.50;90.90;;;;;;5094285;28;19944;-71
2023/11/10 14:16:27;;;;;;;;;;;13.40;90.90;;;;;;5117430;27;20000;-71
2023/11/10 14:18:53;;;;;;;;;;;13.30;90.90;;;;;;5114542;27;20393;-72
2023/11/10 14:21:21;;;;;;;;;;;13.20;90.90;;;;;;5097819;27;19977;-74